createdAt,value
2018-03-11T00:02:14.646Z,17.67
2018-03-11T00:04:42.222Z,17.70
2018-03-11T00:07:09.936Z,18.37
2018-03-11T00:09:37.546Z,17.57
2018-03-11T00:12:05.138Z,20.07
2018-03-11T00:14:32.694Z,18.27
2018-03-11T00:17:00.276Z,18.60
2018-03-11T00:19:27.850Z,24.10
2018-03-11T00:21:55.466Z,22.37
2018-03-11T00:24:23.224Z,19.97
2018-03-11T00:26:50.940Z,20.23
2018-03-11T00:29:18.729Z,20.77
2018-03-11T00:31:46.294Z,22.83
2018-03-11T00:34:14.012Z,20.93
2018-03-11T00:36:41.622Z,17.53
2018-03-11T00:39:09.368Z,16.77
2018-03-11T00:41:36.929Z,17.77
2018-03-11T00:44:04.704Z,18.77
2018-03-11T00:46:32.366Z,18.10
2018-03-11T00:48:59.926Z,19.27
2018-03-11T00:51:27.662Z,19.90
2018-03-11T00:53:55.234Z,18.30
2018-03-11T00:56:22.994Z,18.97
2018-03-11T00:58:50.610Z,17.03
2018-03-11T01:01:18.185Z,15.77
2018-03-11T01:03:45.826Z,17.53
2018-03-11T01:06:13.782Z,16.90
2018-03-11T01:08:41.375Z,18.00
2018-03-11T01:11:09.006Z,17.97
2018-03-11T01:13:36.720Z,18.37
2018-03-11T01:16:04.331Z,19.33
2018-03-11T01:18:31.901Z,19.20
2018-03-11T01:20:59.481Z,18.43
2018-03-11T01:23:27.184Z,17.30
2018-03-11T01:25:54.743Z,18.10
2018-03-11T01:28:22.307Z,18.27
2018-03-11T01:30:50.017Z,17.53
2018-03-11T01:33:17.655Z,18.43
2018-03-11T01:35:45.267Z,18.00
2018-03-11T01:38:12.966Z,16.93
2018-03-11T01:40:40.610Z,18.50
2018-03-11T01:43:08.425Z,18.10
2018-03-11T01:45:35.989Z,18.53
2018-03-11T01:48:03.614Z,21.23
2018-03-11T01:50:31.390Z,22.03
2018-03-11T01:53:09.028Z,18.23
2018-03-11T01:55:36.615Z,20.33
2018-03-11T01:58:04.378Z,18.63
2018-03-11T02:00:31.975Z,18.40
2018-03-11T02:02:59.680Z,18.07
2018-03-11T02:05:27.532Z,17.03
2018-03-11T02:07:55.438Z,18.17
2018-03-11T02:10:23.153Z,17.70
2018-03-11T02:12:50.721Z,19.90
2018-03-11T02:15:18.506Z,18.70
2018-03-11T02:17:46.326Z,29.60
2018-03-11T02:20:13.890Z,25.60
2018-03-11T02:22:41.442Z,20.33
2018-03-11T02:25:09.152Z,20.30
2018-03-11T02:27:36.731Z,20.13
2018-03-11T02:30:04.615Z,21.13
2018-03-11T02:32:32.334Z,20.90
2018-03-11T02:34:59.930Z,20.00
2018-03-11T02:37:27.672Z,20.03
2018-03-11T02:39:55.249Z,20.90
2018-03-11T02:42:22.859Z,19.90
2018-03-11T02:44:50.584Z,20.63
2018-03-11T02:47:18.156Z,23.27
2018-03-11T02:49:45.964Z,22.03
2018-03-11T02:52:13.523Z,21.27
2018-03-11T02:54:41.142Z,23.40
2018-03-11T02:57:08.913Z,24.03
2018-03-11T02:59:36.522Z,18.93
2018-03-11T03:02:04.105Z,18.90
2018-03-11T03:04:31.657Z,20.57
2018-03-11T03:06:59.486Z,21.03
2018-03-11T03:09:27.082Z,18.60
2018-03-11T03:11:54.921Z,17.70
2018-03-11T03:14:22.742Z,17.77
2018-03-11T03:16:50.302Z,19.30
2018-03-11T03:19:17.924Z,20.00
2018-03-11T03:21:45.694Z,22.37
2018-03-11T03:24:13.412Z,20.90
2018-03-11T03:26:41.230Z,20.10
2018-03-11T03:29:08.791Z,21.20
2018-03-11T03:31:36.414Z,20.40
2018-03-11T03:34:04.077Z,19.87
2018-03-11T03:36:31.803Z,20.80
2018-03-11T03:38:59.371Z,19.77
2018-03-11T03:41:27.138Z,19.50
2018-03-11T03:43:54.957Z,18.90
2018-03-11T03:46:22.521Z,18.70
2018-03-11T03:48:50.078Z,19.77
2018-03-11T03:51:17.775Z,22.40
2018-03-11T03:53:45.335Z,27.27
2018-03-11T03:56:13.146Z,30.27
2018-03-11T03:58:40.741Z,33.67
2018-03-11T04:01:08.293Z,34.50
2018-03-11T04:03:35.862Z,30.90
2018-03-11T04:06:03.498Z,27.53
2018-03-11T04:08:31.222Z,27.63
2018-03-11T04:10:58.932Z,28.80
2018-03-11T04:13:26.563Z,36.37
2018-03-11T04:15:54.138Z,49.17
2018-03-11T04:18:21.908Z,25.17
2018-03-11T04:20:49.639Z,23.03
2018-03-11T04:23:17.197Z,22.30
2018-03-11T04:25:44.760Z,39.43
2018-03-11T04:28:12.365Z,46.13
2018-03-11T04:30:40.097Z,80.70
2018-03-11T04:33:07.727Z,68.27
2018-03-11T04:35:35.296Z,110.97
2018-03-11T04:38:02.875Z,94.13
2018-03-11T04:40:30.446Z,42.30
2018-03-11T04:42:58.001Z,46.83
2018-03-11T04:45:25.806Z,34.70
2018-03-11T04:47:53.361Z,25.87
2018-03-11T04:50:21.119Z,24.73
2018-03-11T04:52:48.691Z,67.53
2018-03-11T04:55:16.275Z,148.17
2018-03-11T04:57:43.901Z,82.83
2018-03-11T05:00:11.715Z,79.80
2018-03-11T05:02:39.278Z,55.40
2018-03-11T05:05:06.882Z,58.87
2018-03-11T05:07:34.666Z,48.30
2018-03-11T05:10:02.370Z,52.63
2018-03-11T05:12:29.989Z,37.03
2018-03-11T05:14:57.720Z,35.70
2018-03-11T05:17:25.282Z,47.43
2018-03-11T05:19:52.841Z,21.23
2018-03-11T05:22:20.476Z,137.37
2018-03-11T05:24:48.044Z,40.47
2018-03-11T05:27:15.603Z,41.73
2018-03-11T05:29:43.162Z,44.33
2018-03-11T05:32:10.945Z,24.07
2018-03-11T05:34:38.766Z,27.33
2018-03-11T05:37:06.583Z,26.20
2018-03-11T05:39:34.142Z,22.07
2018-03-11T05:42:01.918Z,19.93
2018-03-11T05:44:29.508Z,18.47
2018-03-11T05:46:57.126Z,16.30
2018-03-11T05:49:24.839Z,17.83
2018-03-11T05:51:52.555Z,32.73
2018-03-11T05:54:20.131Z,27.20
2018-03-11T05:56:47.695Z,15.30
2018-03-11T05:59:15.315Z,19.87
2018-03-11T06:01:42.874Z,15.90
2018-03-11T06:04:10.680Z,17.07
2018-03-11T06:06:38.245Z,17.90
2018-03-11T06:09:05.816Z,20.37
2018-03-11T06:11:33.446Z,19.13
2018-03-11T06:14:01.022Z,17.83
2018-03-11T06:16:28.581Z,18.10
2018-03-11T06:18:56.149Z,18.43
2018-03-11T06:21:23.714Z,19.60
2018-03-11T06:23:51.352Z,19.13
2018-03-11T06:26:19.140Z,18.93
2018-03-11T06:28:46.703Z,19.07
2018-03-11T06:31:14.476Z,19.10
2018-03-11T06:33:42.034Z,18.57
2018-03-11T06:36:09.913Z,18.17
2018-03-11T06:38:37.731Z,17.67
2018-03-11T06:41:05.298Z,17.60
2018-03-11T06:43:32.874Z,15.70
2018-03-11T06:46:00.429Z,14.43
2018-03-11T06:48:28.050Z,12.97
2018-03-11T06:50:55.606Z,11.73
2018-03-11T06:53:23.161Z,13.03
2018-03-11T06:55:50.734Z,13.83
2018-03-11T06:58:18.308Z,13.63
2018-03-11T07:00:45.940Z,16.00
2018-03-11T07:03:13.691Z,13.80
2018-03-11T07:05:41.427Z,13.30
2018-03-11T07:08:09.002Z,12.80
2018-03-11T07:10:36.763Z,11.60
2018-03-11T07:13:04.398Z,11.63
2018-03-11T07:15:31.970Z,11.73
2018-03-11T07:17:59.557Z,12.33
2018-03-11T07:20:27.179Z,11.90
2018-03-11T07:22:54.953Z,13.17
2018-03-11T07:25:22.510Z,7.80
2018-03-11T07:27:50.389Z,8.53
2018-03-11T07:30:18.270Z,11.13
2018-03-11T07:32:45.864Z,8.50
2018-03-11T07:35:13.474Z,9.07
2018-03-11T07:37:41.052Z,7.83
2018-03-11T07:40:08.602Z,7.13
2018-03-11T07:42:36.397Z,7.43
2018-03-11T07:45:04.217Z,6.60
2018-03-11T07:47:31.815Z,6.50
2018-03-11T07:49:59.654Z,6.47
2018-03-11T07:52:27.215Z,6.90
2018-03-11T07:54:54.777Z,5.40
2018-03-11T07:57:22.606Z,5.67
2018-03-11T07:59:50.323Z,5.77
2018-03-11T08:02:17.882Z,5.77
2018-03-11T08:04:45.519Z,5.87
2018-03-11T08:07:13.082Z,6.70
2018-03-11T08:09:40.796Z,5.93
2018-03-11T08:12:08.613Z,5.10
2018-03-11T08:14:36.220Z,5.73
2018-03-11T08:17:03.952Z,6.00
2018-03-11T08:19:31.561Z,6.47
2018-03-11T08:21:59.285Z,7.27
2018-03-11T08:24:26.837Z,6.13
2018-03-11T08:26:54.839Z,6.17
2018-03-11T08:29:22.384Z,6.00
2018-03-11T08:31:49.959Z,5.90
2018-03-11T08:34:17.590Z,4.57
2018-03-11T08:36:45.394Z,4.43
2018-03-11T08:39:12.969Z,5.47
2018-03-11T08:41:40.796Z,4.30
2018-03-11T08:44:08.347Z,4.00
2018-03-11T08:46:36.168Z,3.20
2018-03-11T08:49:03.795Z,3.40
2018-03-11T08:51:31.346Z,3.53
2018-03-11T08:53:58.910Z,3.43
2018-03-11T08:56:26.514Z,2.20
2018-03-11T08:58:54.069Z,2.30
2018-03-11T09:01:21.875Z,2.00
2018-03-11T09:03:49.486Z,2.00
2018-03-11T09:06:17.211Z,2.10
2018-03-11T09:08:44.762Z,3.40
2018-03-11T09:11:12.547Z,3.20
2018-03-11T09:13:40.115Z,3.17
2018-03-11T09:16:07.673Z,2.97
2018-03-11T09:18:35.292Z,2.63
2018-03-11T09:21:03.017Z,2.70
2018-03-11T09:23:30.573Z,2.80
2018-03-11T09:25:58.327Z,3.50
2018-03-11T09:28:25.882Z,2.90
2018-03-11T09:30:53.438Z,2.77
2018-03-11T09:33:21.308Z,4.17
2018-03-11T09:35:48.917Z,2.30
2018-03-11T09:38:16.472Z,2.40
2018-03-11T09:40:44.136Z,2.07
2018-03-11T09:43:11.846Z,3.03
2018-03-11T09:45:39.565Z,3.10
2018-03-11T09:48:07.198Z,6.60
2018-03-11T09:50:34.897Z,2.80
2018-03-11T09:53:02.454Z,3.40
2018-03-11T09:55:30.067Z,3.40
2018-03-11T09:57:57.625Z,3.60
2018-03-11T10:00:25.187Z,2.57
2018-03-11T10:02:52.789Z,2.47
2018-03-11T10:05:20.540Z,3.40
2018-03-11T10:07:48.151Z,3.07
2018-03-11T10:10:15.977Z,2.77
2018-03-11T10:12:43.535Z,2.87
2018-03-11T10:15:11.095Z,2.37
2018-03-11T10:17:38.930Z,2.57
2018-03-11T10:20:06.498Z,2.97
2018-03-11T10:22:34.272Z,2.40
2018-03-11T10:25:01.895Z,2.50
2018-03-11T10:27:29.445Z,2.43
2018-03-11T10:29:57.007Z,2.60
2018-03-11T10:32:24.630Z,2.50
2018-03-11T10:34:52.186Z,2.83
2018-03-11T10:37:19.777Z,2.87
2018-03-11T10:39:47.593Z,5.57
2018-03-11T10:42:15.306Z,6.53
2018-03-11T10:44:42.870Z,2.77
2018-03-11T10:47:10.627Z,2.90
2018-03-11T10:49:38.365Z,2.70
2018-03-11T10:52:05.930Z,2.80
2018-03-11T10:54:33.541Z,3.47
2018-03-11T10:57:01.279Z,2.70
2018-03-11T10:59:28.830Z,2.60
2018-03-11T11:02:02.006Z,2.77
2018-03-11T11:04:42.546Z,2.60
2018-03-11T11:07:10.154Z,4.77
2018-03-11T11:09:37.709Z,3.40
2018-03-11T11:12:05.493Z,25.27
2018-03-11T11:14:33.419Z,12.67
2018-03-11T11:17:00.995Z,3.23
2018-03-11T11:19:28.576Z,3.07
2018-03-11T11:21:56.198Z,49.53
2018-03-11T11:24:23.767Z,14.47
2018-03-11T11:26:51.334Z,32.40
2018-03-11T11:29:19.120Z,3.63
2018-03-11T11:31:46.683Z,7.00
2018-03-11T11:34:14.432Z,7.80
2018-03-11T11:36:42.272Z,3.37
2018-03-11T11:39:09.830Z,2.87
2018-03-11T11:41:37.608Z,4.83
2018-03-11T11:44:05.238Z,10.03
2018-03-11T11:46:32.824Z,2.37
2018-03-11T11:49:00.453Z,12.30
2018-03-11T11:51:28.105Z,7.67
2018-03-11T11:53:55.898Z,2.40
2018-03-11T11:56:23.482Z,3.07
2018-03-11T11:58:51.090Z,6.43
2018-03-11T12:01:18.853Z,2.60
2018-03-11T12:03:46.411Z,3.13
2018-03-11T12:06:14.030Z,3.33
2018-03-11T12:08:41.584Z,3.53
2018-03-11T12:11:09.142Z,2.73
2018-03-11T12:13:36.941Z,2.60
2018-03-11T12:16:04.760Z,2.40
2018-03-11T12:18:32.316Z,2.70
2018-03-11T12:21:00.096Z,2.47
2018-03-11T12:23:27.914Z,2.90
2018-03-11T12:25:55.461Z,2.60
2018-03-11T12:28:23.116Z,2.10
2018-03-11T12:30:50.668Z,2.50
2018-03-11T12:33:18.237Z,2.93
2018-03-11T12:35:45.858Z,2.73
2018-03-11T12:38:13.417Z,2.80
2018-03-11T12:40:41.085Z,2.77
2018-03-11T12:43:08.858Z,3.00
2018-03-11T12:45:36.417Z,2.87
2018-03-11T12:48:03.978Z,3.43
2018-03-11T12:50:31.784Z,2.80
2018-03-11T12:52:59.341Z,3.67
2018-03-11T12:55:26.902Z,7.03
2018-03-11T12:57:54.527Z,33.50
2018-03-11T13:00:22.252Z,20.43
2018-03-11T13:02:49.969Z,2.93
2018-03-11T13:05:17.584Z,2.73
2018-03-11T13:07:45.161Z,3.00
2018-03-11T13:10:12.718Z,2.93
2018-03-11T13:12:40.331Z,2.97
2018-03-11T13:15:08.091Z,3.07
2018-03-11T13:17:35.656Z,3.07
2018-03-11T13:20:15.035Z,2.70
2018-03-11T13:22:42.590Z,3.00
2018-03-11T13:25:10.143Z,2.70
2018-03-11T13:27:37.828Z,3.00
2018-03-11T13:30:05.639Z,3.77
2018-03-11T13:32:45.022Z,3.80
2018-03-11T13:35:12.817Z,5.07
2018-03-11T13:37:40.505Z,8.57
2018-03-11T13:40:19.890Z,3.40
2018-03-11T13:42:47.451Z,3.03
2018-03-11T13:45:26.826Z,3.97
2018-03-11T13:47:54.459Z,4.00
2018-03-11T13:50:22.207Z,3.00
2018-03-11T13:55:55.290Z,2.70
2018-03-11T13:58:34.626Z,3.27
2018-03-11T14:01:02.187Z,2.70
2018-03-11T14:03:29.755Z,2.93
2018-03-11T14:05:57.373Z,3.03
2018-03-11T14:08:24.932Z,3.50
2018-03-11T14:10:52.496Z,3.10
2018-03-11T14:13:20.342Z,3.40
2018-03-11T14:15:48.162Z,3.07
2018-03-11T14:18:15.979Z,3.13
2018-03-11T14:20:43.809Z,2.50
2018-03-11T14:23:11.616Z,2.60
2018-03-11T14:25:39.433Z,2.87
2018-03-11T14:28:07.256Z,3.00
2018-03-11T14:30:34.882Z,2.80
2018-03-11T14:33:02.447Z,2.90
2018-03-11T14:35:30.081Z,2.90
2018-03-11T14:37:57.794Z,3.73
2018-03-11T14:40:25.350Z,3.10
2018-03-11T14:42:52.970Z,3.03
2018-03-11T14:45:20.559Z,4.87
2018-03-11T14:47:48.115Z,2.90
2018-03-11T14:50:15.727Z,3.30
2018-03-11T14:52:43.324Z,4.00
2018-03-11T14:55:10.888Z,3.07
2018-03-11T14:57:38.516Z,4.07
2018-03-11T15:00:06.142Z,4.33
2018-03-11T15:02:33.913Z,4.57
2018-03-11T15:05:01.512Z,3.60
2018-03-11T15:07:29.070Z,4.40
2018-03-11T15:09:56.837Z,3.80
2018-03-11T15:12:24.460Z,3.60
2018-03-11T15:14:52.025Z,3.93
2018-03-11T15:17:19.573Z,3.63
2018-03-11T15:19:47.199Z,3.63
2018-03-11T15:22:14.831Z,4.07
2018-03-11T15:24:42.394Z,3.13
2018-03-11T15:27:10.184Z,3.60
2018-03-11T15:29:37.738Z,3.20
2018-03-11T15:32:05.330Z,3.03
2018-03-11T15:34:32.944Z,3.20
2018-03-11T15:37:00.498Z,3.23
2018-03-11T15:39:28.057Z,4.77
2018-03-11T15:41:55.955Z,3.97
2018-03-11T15:44:23.542Z,3.80
2018-03-11T15:46:51.105Z,14.47
2018-03-11T15:49:18.731Z,10.27
2018-03-11T15:51:46.446Z,7.97
2018-03-11T15:54:14.021Z,8.93
2018-03-11T15:56:41.649Z,38.27
2018-03-11T15:59:09.397Z,23.80
2018-03-11T16:01:37.134Z,26.60
2018-03-11T16:04:04.787Z,31.10
2018-03-11T16:06:32.571Z,23.47
2018-03-11T16:09:00.390Z,20.33
2018-03-11T16:11:28.005Z,8.83
2018-03-11T16:13:55.797Z,25.50
2018-03-11T16:16:23.357Z,26.40
2018-03-11T16:18:51.163Z,59.53
2018-03-11T16:21:18.727Z,19.73
2018-03-11T16:23:46.501Z,18.77
2018-03-11T16:26:14.316Z,63.13
2018-03-11T16:28:41.886Z,33.83
2018-03-11T16:31:09.450Z,79.10
2018-03-11T16:33:37.150Z,39.93
2018-03-11T16:36:04.726Z,16.60
2018-03-11T16:38:32.287Z,7.80
2018-03-11T16:41:00.124Z,48.23
2018-03-11T16:43:27.686Z,26.73
2018-03-11T16:45:55.442Z,7.67
2018-03-11T16:48:23.063Z,24.43
2018-03-11T16:50:50.687Z,7.33
2018-03-11T16:53:18.430Z,23.03
2018-03-11T16:55:46.058Z,74.43
2018-03-11T16:58:13.851Z,201.30
2018-03-11T17:00:41.518Z,53.87
2018-03-11T17:03:09.168Z,16.27
2018-03-11T17:05:36.904Z,36.90
2018-03-11T17:08:04.504Z,21.97
2018-03-11T17:10:32.126Z,44.80
2018-03-11T17:12:59.702Z,25.90
2018-03-11T17:15:29.476Z,27.17
2018-03-11T17:17:57.305Z,27.53
2018-03-11T17:20:25.121Z,31.57
2018-03-11T17:22:52.841Z,35.70
2018-03-11T17:25:20.454Z,40.13
2018-03-11T17:27:48.038Z,58.97
2018-03-11T17:30:15.623Z,104.50
2018-03-11T17:32:43.411Z,40.67
2018-03-11T17:35:10.990Z,100.47
2018-03-11T17:37:38.564Z,103.50
2018-03-11T17:40:06.217Z,47.80
2018-03-11T17:42:33.796Z,37.30
2018-03-11T17:45:01.363Z,36.47
2018-03-11T17:47:28.986Z,44.33
2018-03-11T17:49:56.636Z,41.77
2018-03-11T17:52:24.234Z,43.40
2018-03-11T17:54:51.866Z,128.00
2018-03-11T17:57:19.481Z,70.13
2018-03-11T17:59:47.210Z,58.87
2018-03-11T18:02:15.026Z,53.13
2018-03-11T18:04:42.606Z,115.70
2018-03-11T18:07:10.191Z,83.63
2018-03-11T18:09:38.080Z,62.10
2018-03-11T18:12:05.654Z,68.80
2018-03-11T18:14:33.227Z,70.53
2018-03-11T18:17:00.862Z,48.50
2018-03-11T18:19:28.653Z,75.80
2018-03-11T18:21:56.242Z,86.00
2018-03-11T18:24:24.008Z,62.90
2018-03-11T18:26:51.586Z,83.07
2018-03-11T18:29:19.178Z,99.37
2018-03-11T18:31:46.836Z,106.40
2018-03-11T18:34:14.404Z,48.23
2018-03-11T18:36:42.178Z,40.37
2018-03-11T18:39:09.809Z,45.83
2018-03-11T18:41:37.374Z,43.30
2018-03-11T18:44:04.982Z,40.37
2018-03-11T18:46:32.605Z,58.17
2018-03-11T18:49:00.162Z,47.60
2018-03-11T18:51:27.776Z,40.07
2018-03-11T18:53:55.418Z,40.40
2018-03-11T18:56:23.225Z,54.63
2018-03-11T18:58:50.793Z,54.17
2018-03-11T19:01:18.685Z,52.57
2018-03-11T19:03:46.301Z,42.10
2018-03-11T19:06:14.094Z,35.47
2018-03-11T19:08:41.762Z,40.13
2018-03-11T19:11:09.336Z,39.23
2018-03-11T19:13:36.893Z,53.97
2018-03-11T19:16:04.721Z,49.77
2018-03-11T19:18:32.282Z,44.43
2018-03-11T19:20:59.842Z,45.03
2018-03-11T19:23:27.824Z,40.83
2018-03-11T19:25:55.641Z,45.70
2018-03-11T19:28:23.487Z,59.67
2018-03-11T19:30:51.215Z,67.53
2018-03-11T19:33:18.797Z,57.30
2018-03-11T19:35:46.380Z,68.37
2018-03-11T19:38:14.021Z,48.33
2018-03-11T19:40:41.848Z,69.43
2018-03-11T19:43:09.453Z,56.50
2018-03-11T19:45:37.086Z,46.60
2018-03-11T19:48:04.658Z,44.13
2018-03-11T19:50:32.388Z,41.00
2018-03-11T19:53:00.086Z,49.77
2018-03-11T19:55:27.821Z,47.03
2018-03-11T19:57:55.415Z,34.17
2018-03-11T20:00:23.358Z,37.90
2018-03-11T20:02:51.071Z,58.30
2018-03-11T20:05:18.831Z,42.07
2018-03-11T20:07:46.486Z,39.77
2018-03-11T20:10:14.062Z,48.97
2018-03-11T20:12:41.776Z,53.20
2018-03-11T20:15:09.422Z,70.47
2018-03-11T20:17:36.987Z,37.47
2018-03-11T20:20:04.766Z,33.47
2018-03-11T20:22:32.757Z,33.70
2018-03-11T20:25:00.577Z,33.53
2018-03-11T20:27:28.395Z,31.93
2018-03-11T20:29:56.254Z,25.13
2018-03-11T20:32:23.810Z,32.00
2018-03-11T20:34:51.511Z,34.90
2018-03-11T20:37:19.476Z,29.63
2018-03-11T20:39:47.287Z,16.47
2018-03-11T20:42:15.031Z,13.57
2018-03-11T20:44:42.653Z,25.43
2018-03-11T20:47:10.329Z,19.07
2018-03-11T20:49:37.904Z,15.63
2018-03-11T20:52:05.777Z,17.13
2018-03-11T20:54:33.345Z,17.97
2018-03-11T20:57:00.910Z,18.20
2018-03-11T20:59:28.537Z,21.40
2018-03-11T21:01:56.234Z,13.17
2018-03-11T21:04:23.968Z,15.60
2018-03-11T21:06:51.786Z,19.10
2018-03-11T21:09:19.604Z,169.10
2018-03-11T21:11:47.203Z,214.40
2018-03-11T21:14:14.932Z,289.50
2018-03-11T21:16:42.507Z,413.80
2018-03-11T21:19:10.260Z,244.50
2018-03-11T21:21:38.096Z,238.00
2018-03-11T21:24:05.914Z,409.03
2018-03-11T21:26:33.732Z,347.00
2018-03-11T21:29:01.361Z,386.27
2018-03-11T21:31:28.945Z,323.10
2018-03-11T21:33:56.764Z,263.67
2018-03-11T21:36:24.402Z,107.90
2018-03-11T21:38:51.992Z,15.10
2018-03-11T21:41:19.576Z,119.37
2018-03-11T21:43:47.359Z,371.83
2018-03-11T21:46:14.934Z,278.97
2018-03-11T21:48:42.506Z,116.70
2018-03-11T21:51:10.134Z,179.17
2018-03-11T21:53:38.040Z,118.63
2018-03-11T21:56:05.628Z,62.83
2018-03-11T21:58:33.247Z,39.20
2018-03-11T22:01:00.810Z,16.60
2018-03-11T22:03:28.374Z,24.77
2018-03-11T22:05:56.222Z,24.33
2018-03-11T22:08:24.039Z,18.47
2018-03-11T22:10:51.598Z,16.10
2018-03-11T22:13:19.214Z,12.23
2018-03-11T22:15:46.780Z,11.50
2018-03-11T22:18:14.361Z,12.20
2018-03-11T22:20:42.099Z,11.63
2018-03-11T22:23:09.849Z,14.63
2018-03-11T22:25:37.426Z,12.10
2018-03-11T22:28:05.285Z,9.77
2018-03-11T22:30:33.002Z,9.67
2018-03-11T22:33:00.634Z,9.80
2018-03-11T22:35:28.305Z,8.77
2018-03-11T22:37:55.881Z,9.07
2018-03-11T22:40:23.437Z,9.10
2018-03-11T22:42:51.068Z,9.17
2018-03-11T22:45:18.790Z,8.53
2018-03-11T22:47:46.406Z,7.53
2018-03-11T22:50:14.037Z,7.13
2018-03-11T22:52:41.868Z,7.37
2018-03-11T22:55:09.690Z,6.87
2018-03-11T22:57:37.389Z,6.70
2018-03-11T23:00:05.220Z,7.77
2018-03-11T23:02:32.778Z,8.97
2018-03-11T23:05:00.459Z,7.63
2018-03-11T23:07:28.011Z,7.50
2018-03-11T23:09:55.576Z,8.57
2018-03-11T23:12:23.241Z,10.37
2018-03-11T23:14:51.027Z,8.47
2018-03-11T23:17:18.847Z,12.37
2018-03-11T23:19:46.466Z,14.93
2018-03-11T23:22:14.037Z,16.70
2018-03-11T23:24:41.598Z,13.40
2018-03-11T23:27:09.420Z,13.73
2018-03-11T23:29:36.982Z,16.40
2018-03-11T23:32:04.554Z,21.60
2018-03-11T23:34:32.371Z,12.17
2018-03-11T23:36:59.939Z,10.47
2018-03-11T23:39:27.508Z,10.10
2018-03-11T23:41:55.271Z,9.60
2018-03-11T23:44:23.044Z,11.23
2018-03-11T23:46:50.613Z,10.70
2018-03-11T23:49:18.234Z,11.27
2018-03-11T23:51:45.804Z,12.80
2018-03-11T23:54:13.370Z,11.73
2018-03-11T23:56:41.197Z,29.13
2018-03-11T23:59:09.052Z,35.40
